createdAt,value
2023-04-02T00:00:45.963Z,1003.50
2023-04-02T00:01:45.978Z,1003.43
2023-04-02T00:02:45.992Z,1003.50
2023-04-02T00:03:46.035Z,1003.45
2023-04-02T00:04:45.962Z,1003.55
2023-04-02T00:05:45.887Z,1003.53
2023-04-02T00:06:45.914Z,1003.55
2023-04-02T00:07:45.894Z,1003.52
2023-04-02T00:08:45.873Z,1003.55
2023-04-02T00:09:45.871Z,1003.63
2023-04-02T00:10:45.840Z,1003.55
2023-04-02T00:11:45.853Z,1003.62
2023-04-02T00:12:45.837Z,1003.58
2023-04-02T00:13:45.816Z,1003.59
2023-04-02T00:14:45.861Z,1003.59
2023-04-02T00:15:45.804Z,1003.62
2023-04-02T00:16:45.805Z,1003.61
2023-04-02T00:17:45.799Z,1003.62
2023-04-02T00:18:45.785Z,1003.69
2023-04-02T00:19:45.806Z,1003.67
2023-04-02T00:20:45.747Z,1003.72
2023-04-02T00:21:45.735Z,1003.75
2023-04-02T00:22:45.745Z,1003.77
2023-04-02T00:23:45.738Z,1003.79
2023-04-02T00:24:46.073Z,1003.80
2023-04-02T00:25:45.843Z,1003.77
2023-04-02T00:26:45.720Z,1003.84
2023-04-02T00:27:45.676Z,1003.82
2023-04-02T00:28:45.692Z,1003.79
2023-04-02T00:29:45.651Z,1003.73
2023-04-02T00:30:45.662Z,1003.89
2023-04-02T00:31:45.683Z,1003.87
2023-04-02T00:32:45.694Z,1003.98
2023-04-02T00:33:45.612Z,1004.02
2023-04-02T00:34:45.611Z,1004.02
2023-04-02T00:35:45.613Z,1004.06
2023-04-02T00:36:45.568Z,1004.02
2023-04-02T00:37:45.563Z,1004.07
2023-04-02T00:38:47.415Z,1004.07
2023-04-02T00:39:45.542Z,1004.10
2023-04-02T00:40:45.528Z,1004.11
2023-04-02T00:41:45.519Z,1004.11
2023-04-02T00:42:45.504Z,1004.17
2023-04-02T00:43:45.511Z,1004.17
2023-04-02T00:44:45.490Z,1004.18
2023-04-02T00:45:45.511Z,1004.19
2023-04-02T00:46:45.486Z,1004.25
2023-04-02T00:47:45.508Z,1004.26
2023-04-02T00:48:45.461Z,1004.25
2023-04-02T00:49:45.432Z,1004.27
2023-04-02T00:50:45.446Z,1004.28
2023-04-02T00:51:45.405Z,1004.33
2023-04-02T00:52:45.416Z,1004.29
2023-04-02T00:53:45.387Z,1004.38
2023-04-02T00:54:45.393Z,1004.36
2023-04-02T00:55:45.451Z,1004.40
2023-04-02T00:56:45.358Z,1004.48
2023-04-02T00:57:45.358Z,1004.50
2023-04-02T00:58:45.361Z,1004.48
2023-04-02T00:59:45.370Z,1004.47
2023-04-02T01:00:45.333Z,1004.46
2023-04-02T01:01:45.430Z,1004.53
2023-04-02T01:02:45.371Z,1004.49
2023-04-02T01:03:45.406Z,1004.59
2023-04-02T01:04:45.271Z,1004.52
2023-04-02T01:05:45.260Z,1004.55
2023-04-02T01:06:45.277Z,1004.52
2023-04-02T01:07:45.233Z,1004.59
2023-04-02T01:08:45.257Z,1004.57
2023-04-02T01:09:45.213Z,1004.55
2023-04-02T01:10:45.251Z,1004.59
2023-04-02T01:11:45.196Z,1004.61
2023-04-02T01:12:45.204Z,1004.57
2023-04-02T01:13:45.192Z,1004.62
2023-04-02T01:14:45.171Z,1004.66
2023-04-02T01:15:45.212Z,1004.65
2023-04-02T01:16:45.143Z,1004.73
2023-04-02T01:17:45.239Z,1004.67
2023-04-02T01:18:45.138Z,1004.72
2023-04-02T01:19:45.103Z,1004.78
2023-04-02T01:20:45.118Z,1004.76
2023-04-02T01:21:45.091Z,1004.75
2023-04-02T01:22:45.070Z,1004.78
2023-04-02T01:23:45.077Z,1004.84
2023-04-02T01:24:45.053Z,1004.82
2023-04-02T01:25:45.064Z,1004.87
2023-04-02T01:26:45.260Z,1004.87
2023-04-02T01:27:45.031Z,1004.87
2023-04-02T01:28:45.030Z,1004.93
2023-04-02T01:29:45.002Z,1004.91
2023-04-02T01:30:44.994Z,1004.90
2023-04-02T01:31:45.246Z,1004.96
2023-04-02T01:32:45.046Z,1004.92
2023-04-02T01:33:44.985Z,1004.91
2023-04-02T01:34:44.953Z,1005.05
2023-04-02T01:35:44.959Z,1005.01
2023-04-02T01:36:44.967Z,1005.04
2023-04-02T01:37:44.976Z,1005.01
2023-04-02T01:38:44.905Z,1005.08
2023-04-02T01:39:44.890Z,1005.12
2023-04-02T01:40:44.900Z,1005.06
2023-04-02T01:41:44.893Z,1005.17
2023-04-02T01:42:44.897Z,1005.11
2023-04-02T01:43:44.855Z,1005.21
2023-04-02T01:44:44.867Z,1005.27
2023-04-02T01:45:44.839Z,1005.23
2023-04-02T01:46:44.922Z,1005.30
2023-04-02T01:47:44.872Z,1005.31
2023-04-02T01:48:44.816Z,1005.32
2023-04-02T01:49:44.796Z,1005.31
2023-04-02T01:50:44.781Z,1005.36
2023-04-02T01:51:44.769Z,1005.36
2023-04-02T01:52:44.748Z,1005.43
2023-04-02T01:53:44.762Z,1005.40
2023-04-02T01:54:44.731Z,1005.43
2023-04-02T01:55:44.733Z,1005.46
2023-04-02T01:56:44.702Z,1005.50
2023-04-02T01:57:44.757Z,1005.51
2023-04-02T01:58:44.677Z,1005.57
2023-04-02T01:59:44.682Z,1005.57
2023-04-02T02:00:44.714Z,1005.64
2023-04-02T02:01:44.694Z,1005.71
2023-04-02T02:02:44.696Z,1005.74
2023-04-02T02:03:44.627Z,1005.64
2023-04-02T02:04:44.629Z,1005.74
2023-04-02T02:05:44.623Z,1005.75
2023-04-02T02:06:44.598Z,1005.76
2023-04-02T02:07:44.593Z,1005.71
2023-04-02T02:08:44.625Z,1005.82
2023-04-02T02:09:44.577Z,1005.79
2023-04-02T02:10:44.560Z,1005.81
2023-04-02T02:11:44.567Z,1005.87
2023-04-02T02:12:44.556Z,1005.91
2023-04-02T02:13:44.534Z,1005.89
2023-04-02T02:14:44.533Z,1005.90
2023-04-02T02:15:44.547Z,1005.99
2023-04-02T02:16:44.592Z,1006.05
2023-04-02T02:17:44.506Z,1005.77
2023-04-02T02:18:44.468Z,1006.01
2023-04-02T02:19:44.464Z,1006.04
2023-04-02T02:20:44.476Z,1006.04
2023-04-02T02:21:44.469Z,1006.03
2023-04-02T02:22:44.434Z,1006.07
2023-04-02T02:23:44.438Z,1006.06
2023-04-02T02:24:44.426Z,1006.03
2023-04-02T02:25:44.428Z,1006.12
2023-04-02T02:26:44.383Z,1006.12
2023-04-02T02:27:44.394Z,1006.18
2023-04-02T02:28:44.722Z,1006.20
2023-04-02T02:29:44.360Z,1006.18
2023-04-02T02:30:44.343Z,1006.21
2023-04-02T02:31:44.385Z,1006.20
2023-04-02T02:32:44.401Z,1006.22
2023-04-02T02:33:44.361Z,1006.20
2023-04-02T02:34:44.321Z,1006.24
2023-04-02T02:35:44.375Z,1006.26
2023-04-02T02:36:52.840Z,1006.30
2023-04-02T02:37:52.798Z,1006.35
2023-04-02T02:38:44.277Z,1006.37
2023-04-02T02:39:44.278Z,1006.33
2023-04-02T02:40:44.235Z,1006.42
2023-04-02T02:41:44.253Z,1006.38
2023-04-02T02:42:44.213Z,1006.46
2023-04-02T02:43:44.224Z,1006.42
2023-04-02T02:44:44.201Z,1006.46
2023-04-02T02:45:44.270Z,1006.51
2023-04-02T02:46:44.175Z,1006.53
2023-04-02T02:47:44.210Z,1006.49
2023-04-02T02:48:44.183Z,1006.56
2023-04-02T02:49:44.154Z,1006.51
2023-04-02T02:50:44.156Z,1006.59
2023-04-02T02:51:44.129Z,1006.61
2023-04-02T02:52:44.094Z,1006.57
2023-04-02T02:53:44.113Z,1006.61
2023-04-02T02:54:44.112Z,1006.61
2023-04-02T02:55:44.086Z,1006.66
2023-04-02T02:56:44.073Z,1006.70
2023-04-02T02:57:44.091Z,1006.70
2023-04-02T02:58:44.053Z,1006.70
2023-04-02T02:59:44.094Z,1006.70
2023-04-02T03:00:44.040Z,1006.67
2023-04-02T03:01:44.093Z,1006.67
2023-04-02T03:02:44.105Z,1006.75
2023-04-02T03:03:44.277Z,1006.77
2023-04-02T03:04:43.970Z,1006.75
2023-04-02T03:05:43.998Z,1006.87
2023-04-02T03:06:43.961Z,1006.84
2023-04-02T03:07:43.955Z,1006.86
2023-04-02T03:08:43.958Z,1006.90
2023-04-02T03:09:43.966Z,1006.90
2023-04-02T03:10:43.924Z,1006.90
2023-04-02T03:11:43.906Z,1006.95
2023-04-02T03:12:43.891Z,1006.97
2023-04-02T03:13:43.921Z,1006.93
2023-04-02T03:14:43.860Z,1006.96
2023-04-02T03:15:43.938Z,1006.96
2023-04-02T03:16:43.846Z,1007.02
2023-04-02T03:17:43.906Z,1007.00
2023-04-02T03:18:43.845Z,1007.01
2023-04-02T03:19:43.842Z,1007.06
2023-04-02T03:20:43.820Z,1007.01
2023-04-02T03:21:43.817Z,1007.03
2023-04-02T03:22:43.811Z,1007.14
2023-04-02T03:23:43.814Z,1007.12
2023-04-02T03:24:43.773Z,1007.21
2023-04-02T03:25:43.805Z,1007.21
2023-04-02T03:26:43.768Z,1007.25
2023-04-02T03:27:43.773Z,1007.28
2023-04-02T03:28:43.737Z,1007.26
2023-04-02T03:29:43.745Z,1007.31
2023-04-02T03:30:43.818Z,1007.34
2023-04-02T03:31:43.773Z,1007.31
2023-04-02T03:32:43.760Z,1007.36
2023-04-02T03:33:43.703Z,1007.36
2023-04-02T03:34:43.678Z,1007.42
2023-04-02T03:35:43.699Z,1007.45
2023-04-02T03:36:43.680Z,1007.40
2023-04-02T03:37:43.662Z,1007.49
2023-04-02T03:38:43.667Z,1007.55
2023-04-02T03:39:43.630Z,1007.62
2023-04-02T03:40:43.633Z,1007.62
2023-04-02T03:41:43.624Z,1007.66
2023-04-02T03:42:43.607Z,1007.66
2023-04-02T03:43:43.592Z,1007.71
2023-04-02T03:44:43.580Z,1007.73
2023-04-02T03:45:43.557Z,1007.71
2023-04-02T03:46:52.171Z,1007.69
2023-04-02T03:47:43.574Z,1007.77
2023-04-02T03:48:43.534Z,1007.75
2023-04-02T03:49:43.534Z,1007.83
2023-04-02T03:50:52.021Z,1007.85
2023-04-02T03:51:53.063Z,1007.82
2023-04-02T03:52:43.488Z,1007.86
2023-04-02T03:53:52.035Z,1007.92
2023-04-02T03:54:54.254Z,1007.90
2023-04-02T03:55:44.466Z,1007.95
2023-04-02T03:56:51.986Z,1008.02
2023-04-02T03:57:43.443Z,1008.04
2023-04-02T03:58:43.425Z,1008.03
2023-04-02T03:59:43.410Z,1008.08
2023-04-02T04:00:43.414Z,1008.15
2023-04-02T04:01:53.532Z,1008.12
2023-04-02T04:02:43.386Z,1008.17
2023-04-02T04:03:52.045Z,1008.22
2023-04-02T04:04:43.343Z,1008.20
2023-04-02T04:05:51.907Z,1008.22
2023-04-02T04:06:43.323Z,1008.20
2023-04-02T04:07:43.347Z,1008.23
2023-04-02T04:08:43.318Z,1008.28
2023-04-02T04:09:43.329Z,1008.28
2023-04-02T04:10:43.320Z,1008.27
2023-04-02T04:11:43.331Z,1008.31
2023-04-02T04:12:43.287Z,1008.35
2023-04-02T04:13:43.281Z,1008.42
2023-04-02T04:14:45.174Z,1008.34
2023-04-02T04:15:43.260Z,1008.38
2023-04-02T04:16:43.276Z,1008.39
2023-04-02T04:17:43.332Z,1008.39
2023-04-02T04:18:43.221Z,1008.46
2023-04-02T04:19:43.219Z,1008.48
2023-04-02T04:20:43.189Z,1008.51
2023-04-02T04:21:43.200Z,1008.51
2023-04-02T04:22:43.195Z,1008.51
2023-04-02T04:23:43.197Z,1008.52
2023-04-02T04:24:43.143Z,1008.53
2023-04-02T04:25:43.157Z,1008.63
2023-04-02T04:26:43.147Z,1008.61
2023-04-02T04:27:43.153Z,1008.61
2023-04-02T04:28:43.120Z,1008.69
2023-04-02T04:29:43.117Z,1008.62
2023-04-02T04:30:43.100Z,1008.65
2023-04-02T04:31:43.146Z,1008.56
2023-04-02T04:32:43.238Z,1008.72
2023-04-02T04:33:43.075Z,1008.76
2023-04-02T04:34:43.059Z,1008.76
2023-04-02T04:35:43.081Z,1008.75
2023-04-02T04:36:43.027Z,1008.74
2023-04-02T04:37:43.463Z,1008.79
2023-04-02T04:38:43.028Z,1008.77
2023-04-02T04:39:43.022Z,1008.80
2023-04-02T04:40:42.990Z,1008.82
2023-04-02T04:41:42.993Z,1008.87
2023-04-02T04:42:43.002Z,1008.86
2023-04-02T04:43:42.968Z,1008.86
2023-04-02T04:44:42.991Z,1008.94
2023-04-02T04:45:42.975Z,1008.95
2023-04-02T04:46:42.927Z,1008.97
2023-04-02T04:47:42.946Z,1008.99
2023-04-02T04:48:42.907Z,1008.93
2023-04-02T04:49:42.946Z,1009.02
2023-04-02T04:50:42.887Z,1008.96
2023-04-02T04:51:42.882Z,1009.09
2023-04-02T04:52:42.866Z,1009.10
2023-04-02T04:53:42.868Z,1009.13
2023-04-02T04:54:42.848Z,1009.13
2023-04-02T04:55:42.863Z,1009.20
2023-04-02T04:56:42.805Z,1009.24
2023-04-02T04:57:42.821Z,1009.22
2023-04-02T04:58:42.798Z,1009.25
2023-04-02T04:59:42.826Z,1009.30
2023-04-02T05:00:42.780Z,1009.31
2023-04-02T05:01:42.873Z,1009.36
2023-04-02T05:02:42.800Z,1009.35
2023-04-02T05:03:42.829Z,1009.31
2023-04-02T05:04:42.767Z,1009.38
2023-04-02T05:05:42.735Z,1009.42
2023-04-02T05:06:42.706Z,1009.41
2023-04-02T05:07:42.752Z,1009.40
2023-04-02T05:08:42.690Z,1009.43
2023-04-02T05:09:42.703Z,1009.43
2023-04-02T05:10:42.676Z,1009.45
2023-04-02T05:11:42.722Z,1009.48
2023-04-02T05:12:42.670Z,1009.51
2023-04-02T05:13:42.640Z,1009.54
2023-04-02T05:14:42.621Z,1009.53
2023-04-02T05:15:42.649Z,1009.55
2023-04-02T05:16:42.802Z,1009.63
2023-04-02T05:17:42.668Z,1009.57
2023-04-02T05:18:42.587Z,1009.64
2023-04-02T05:19:42.621Z,1009.66
2023-04-02T05:20:42.577Z,1009.71
2023-04-02T05:21:42.570Z,1009.71
2023-04-02T05:22:42.544Z,1009.73
2023-04-02T05:23:42.562Z,1009.66
2023-04-02T05:24:42.533Z,1009.72
2023-04-02T05:25:42.558Z,1009.80
2023-04-02T05:26:42.518Z,1009.82
2023-04-02T05:27:42.503Z,1009.87
2023-04-02T05:28:42.506Z,1009.88
2023-04-02T05:29:42.486Z,1009.82
2023-04-02T05:30:42.453Z,1009.84
2023-04-02T05:31:42.511Z,1009.91
2023-04-02T05:32:42.528Z,1009.80
2023-04-02T05:33:42.432Z,1009.88
2023-04-02T05:34:42.618Z,1009.91
2023-04-02T05:35:42.471Z,1009.92
2023-04-02T05:36:42.437Z,1009.96
2023-04-02T05:37:42.424Z,1009.90
2023-04-02T05:38:42.386Z,1009.93
2023-04-02T05:39:42.379Z,1010.01
2023-04-02T05:40:42.405Z,1009.98
2023-04-02T05:41:42.360Z,1010.02
2023-04-02T05:42:42.381Z,1010.09
2023-04-02T05:43:42.368Z,1010.08
2023-04-02T05:44:42.321Z,1010.12
2023-04-02T05:45:42.350Z,1010.17
2023-04-02T05:46:42.327Z,1010.12
2023-04-02T05:47:42.353Z,1010.19
2023-04-02T05:48:42.297Z,1010.21
2023-04-02T05:49:42.305Z,1010.22
2023-04-02T05:50:42.294Z,1010.22
2023-04-02T05:51:42.252Z,1010.25
2023-04-02T05:52:42.251Z,1010.26
2023-04-02T05:53:42.243Z,1010.34
2023-04-02T05:54:42.257Z,1010.35
2023-04-02T05:55:42.230Z,1010.30
2023-04-02T05:56:42.216Z,1010.44
2023-04-02T05:57:49.572Z,1010.39
2023-04-02T05:58:45.473Z,1010.44
2023-04-02T05:59:42.165Z,1010.40
2023-04-02T06:00:42.175Z,1010.40
2023-04-02T06:01:42.212Z,1010.45
2023-04-02T06:02:42.204Z,1010.52
2023-04-02T06:03:42.164Z,1010.50
2023-04-02T06:04:42.123Z,1010.50
2023-04-02T06:05:49.192Z,1010.49
2023-04-02T06:06:42.105Z,1010.49
2023-04-02T06:07:42.104Z,1010.57
2023-04-02T06:08:42.104Z,1010.57
2023-04-02T06:09:42.069Z,1010.62
2023-04-02T06:10:42.073Z,1010.61
2023-04-02T06:11:42.050Z,1010.57
2023-04-02T06:12:42.178Z,1010.68
2023-04-02T06:13:42.020Z,1010.65
2023-04-02T06:14:42.027Z,1010.72
2023-04-02T06:15:41.989Z,1010.71
2023-04-02T06:16:42.039Z,1010.72
2023-04-02T06:17:42.049Z,1010.73
2023-04-02T06:18:41.973Z,1010.74
2023-04-02T06:19:41.960Z,1010.81
2023-04-02T06:20:41.967Z,1010.84
2023-04-02T06:21:41.950Z,1010.79
2023-04-02T06:22:41.924Z,1010.88
2023-04-02T06:23:41.925Z,1010.91
2023-04-02T06:24:41.910Z,1010.98
2023-04-02T06:25:41.894Z,1010.98
2023-04-02T06:26:41.882Z,1011.09
2023-04-02T06:27:41.871Z,1011.11
2023-04-02T06:28:41.867Z,1011.08
2023-04-02T06:29:41.876Z,1011.16
2023-04-02T06:30:41.913Z,1011.18
2023-04-02T06:31:41.829Z,1011.15
2023-04-02T06:32:41.943Z,1011.16
2023-04-02T06:33:41.796Z,1011.22
2023-04-02T06:34:41.822Z,1011.28
2023-04-02T06:35:41.841Z,1011.25
2023-04-02T06:36:41.981Z,1011.25
2023-04-02T06:37:41.799Z,1011.29
2023-04-02T06:38:41.793Z,1011.30
2023-04-02T06:39:41.747Z,1011.36
2023-04-02T06:40:41.762Z,1011.39
2023-04-02T06:41:41.726Z,1011.41
2023-04-02T06:42:41.752Z,1011.44
2023-04-02T06:43:41.706Z,1011.39
2023-04-02T06:44:41.704Z,1011.50
2023-04-02T06:45:41.719Z,1011.49
2023-04-02T06:46:41.699Z,1011.48
2023-04-02T06:47:41.755Z,1011.52
2023-04-02T06:48:41.663Z,1011.63
2023-04-02T06:49:41.664Z,1011.53
2023-04-02T06:50:41.653Z,1011.61
2023-04-02T06:51:41.614Z,1011.58
2023-04-02T06:52:41.630Z,1011.70
2023-04-02T06:53:41.585Z,1011.62
2023-04-02T06:54:41.630Z,1011.66
2023-04-02T06:55:41.583Z,1011.63
2023-04-02T06:56:41.586Z,1011.72
2023-04-02T06:57:43.024Z,1011.67
2023-04-02T06:58:41.565Z,1011.67
2023-04-02T06:59:41.573Z,1011.66
2023-04-02T07:00:41.537Z,1011.75
2023-04-02T07:01:41.549Z,1011.78
2023-04-02T07:02:41.522Z,1011.71
2023-04-02T07:03:41.484Z,1011.68
2023-04-02T07:04:41.577Z,1011.82
2023-04-02T07:05:43.024Z,1011.80
2023-04-02T07:06:41.473Z,1011.79
2023-04-02T07:07:41.577Z,1011.86
2023-04-02T07:08:41.456Z,1011.83
2023-04-02T07:09:41.427Z,1011.88
2023-04-02T07:10:41.431Z,1011.87
2023-04-02T07:11:41.404Z,1011.93
2023-04-02T07:12:41.407Z,1011.93
2023-04-02T07:13:41.381Z,1011.95
2023-04-02T07:14:41.378Z,1011.96
2023-04-02T07:15:41.397Z,1011.95
2023-04-02T07:16:41.366Z,1011.98
2023-04-02T07:17:41.362Z,1011.99
2023-04-02T07:18:41.336Z,1012.02
2023-04-02T07:19:41.312Z,1012.06
2023-04-02T07:20:41.311Z,1012.06
2023-04-02T07:21:41.295Z,1012.05
2023-04-02T07:22:41.306Z,1012.10
2023-04-02T07:23:41.278Z,1012.11
2023-04-02T07:24:41.322Z,1012.11
2023-04-02T07:25:41.292Z,1012.19
2023-04-02T07:26:41.283Z,1012.17
2023-04-02T07:27:41.271Z,1012.28
2023-04-02T07:28:41.274Z,1012.17
2023-04-02T07:29:41.213Z,1012.30
2023-04-02T07:30:41.214Z,1012.33
2023-04-02T07:31:41.223Z,1012.33
2023-04-02T07:32:41.246Z,1012.33
2023-04-02T07:33:42.163Z,1012.34
2023-04-02T07:34:41.174Z,1012.38
2023-04-02T07:35:41.216Z,1012.37
2023-04-02T07:36:41.166Z,1012.43
2023-04-02T07:37:41.176Z,1012.40
2023-04-02T07:38:41.203Z,1012.44
2023-04-02T07:39:41.111Z,1012.46
2023-04-02T07:40:41.119Z,1012.48
2023-04-02T07:41:41.095Z,1012.53
2023-04-02T07:42:41.091Z,1012.55
2023-04-02T07:43:41.056Z,1012.54
2023-04-02T07:44:41.074Z,1012.53
2023-04-02T07:45:41.042Z,1012.59
2023-04-02T07:46:41.119Z,1012.59
2023-04-02T07:47:41.057Z,1012.64
2023-04-02T07:48:41.041Z,1012.66
2023-04-02T07:49:41.017Z,1012.71
2023-04-02T07:50:41.002Z,1012.71
2023-04-02T07:51:40.977Z,1012.73
2023-04-02T07:52:40.984Z,1012.68
2023-04-02T07:53:40.968Z,1012.77
2023-04-02T07:54:40.963Z,1012.74
2023-04-02T07:55:40.930Z,1012.75
2023-04-02T07:56:40.948Z,1012.77
2023-04-02T07:57:40.914Z,1012.80
2023-04-02T07:58:40.923Z,1012.83
2023-04-02T07:59:40.919Z,1012.79
2023-04-02T08:00:40.917Z,1012.84
2023-04-02T08:01:40.971Z,1012.88
2023-04-02T08:02:40.918Z,1012.89
2023-04-02T08:03:40.882Z,1012.89
2023-04-02T08:04:40.861Z,1012.90
2023-04-02T08:05:40.858Z,1012.91
2023-04-02T08:06:40.837Z,1012.98
2023-04-02T08:07:40.810Z,1012.99
2023-04-02T08:08:40.817Z,1013.03
2023-04-02T08:09:40.845Z,1013.14
2023-04-02T08:10:40.796Z,1013.08
2023-04-02T08:11:40.773Z,1013.10
2023-04-02T08:12:40.774Z,1013.01
2023-04-02T08:13:40.758Z,1013.10
2023-04-02T08:14:40.754Z,1013.10
2023-04-02T08:15:40.737Z,1013.04
2023-04-02T08:16:40.762Z,1013.11
2023-04-02T08:17:40.743Z,1013.18
2023-04-02T08:18:40.701Z,1013.16
2023-04-02T08:19:53.675Z,1013.09
2023-04-02T08:20:41.704Z,1013.18
2023-04-02T08:21:40.666Z,1013.18
2023-04-02T08:22:40.677Z,1013.16
2023-04-02T08:23:40.638Z,1013.25
2023-04-02T08:24:40.668Z,1013.21
2023-04-02T08:25:40.636Z,1013.19
2023-04-02T08:26:40.629Z,1013.25
2023-04-02T08:27:40.623Z,1013.29
2023-04-02T08:28:40.621Z,1013.30
2023-04-02T08:29:40.578Z,1013.39
2023-04-02T08:30:40.598Z,1013.40
2023-04-02T08:31:40.565Z,1013.41
2023-04-02T08:32:40.749Z,1013.37
2023-04-02T08:33:40.547Z,1013.38
2023-04-02T08:34:40.560Z,1013.43
2023-04-02T08:35:40.643Z,1013.39
2023-04-02T08:36:40.526Z,1013.41
2023-04-02T08:37:40.497Z,1013.43
2023-04-02T08:38:40.519Z,1013.45
2023-04-02T08:39:40.470Z,1013.48
2023-04-02T08:40:40.606Z,1013.42
2023-04-02T08:41:40.452Z,1013.42
2023-04-02T08:42:40.476Z,1013.44
2023-04-02T08:43:40.464Z,1013.47
2023-04-02T08:44:40.448Z,1013.43
2023-04-02T08:45:40.642Z,1013.46
2023-04-02T08:46:40.410Z,1013.51
2023-04-02T08:47:40.459Z,1013.51
2023-04-02T08:48:42.611Z,1013.51
2023-04-02T08:49:40.572Z,1013.56
2023-04-02T08:50:40.379Z,1013.55
2023-04-02T08:51:40.345Z,1013.57
2023-04-02T08:52:40.581Z,1013.68
2023-04-02T08:53:40.328Z,1013.71
2023-04-02T08:54:40.343Z,1013.76
2023-04-02T08:55:40.305Z,1013.73
2023-04-02T08:56:40.355Z,1013.72
2023-04-02T08:57:40.298Z,1013.76
2023-04-02T08:58:40.903Z,1013.79
2023-04-02T08:59:40.284Z,1013.81
2023-04-02T09:00:40.256Z,1013.81
2023-04-02T09:01:40.318Z,1013.89
2023-04-02T09:02:40.281Z,1013.85
2023-04-02T09:03:40.231Z,1013.91
2023-04-02T09:04:40.277Z,1013.87
2023-04-02T09:05:40.191Z,1013.86
2023-04-02T09:06:40.236Z,1013.87
2023-04-02T09:07:40.193Z,1013.91
2023-04-02T09:08:40.181Z,1013.92
2023-04-02T09:09:40.155Z,1013.90
2023-04-02T09:10:40.178Z,1013.92
2023-04-02T09:11:40.155Z,1013.92
2023-04-02T09:12:42.257Z,1013.90
2023-04-02T09:13:40.125Z,1013.93
2023-04-02T09:14:40.254Z,1013.92
2023-04-02T09:15:40.121Z,1013.90
2023-04-02T09:16:40.107Z,1013.91
2023-04-02T09:17:53.240Z,1014.01
2023-04-02T09:18:41.271Z,1014.03
2023-04-02T09:19:40.055Z,1013.98
2023-04-02T09:20:40.047Z,1014.04
2023-04-02T09:21:40.034Z,1013.97
2023-04-02T09:22:40.054Z,1014.02
2023-04-02T09:23:40.001Z,1014.06
2023-04-02T09:24:40.020Z,1014.01
2023-04-02T09:25:39.990Z,1014.07
2023-04-02T09:26:39.986Z,1014.08
2023-04-02T09:27:39.992Z,1014.06
2023-04-02T09:28:39.973Z,1014.11
2023-04-02T09:29:39.974Z,1014.08
2023-04-02T09:30:39.960Z,1014.11
2023-04-02T09:31:39.950Z,1014.13
2023-04-02T09:32:39.971Z,1014.10
2023-04-02T09:33:39.907Z,1014.14
2023-04-02T09:34:39.933Z,1014.11
2023-04-02T09:35:39.922Z,1014.09
2023-04-02T09:36:39.883Z,1014.18
2023-04-02T09:37:39.857Z,1014.13
2023-04-02T09:38:39.861Z,1014.12
2023-04-02T09:39:39.834Z,1014.09
2023-04-02T09:40:40.544Z,1014.21
2023-04-02T09:41:40.135Z,1014.21
2023-04-02T09:42:39.943Z,1014.19
2023-04-02T09:43:39.813Z,1014.23
2023-04-02T09:44:39.840Z,1014.24
2023-04-02T09:45:39.782Z,1014.23
2023-04-02T09:46:39.826Z,1014.28
2023-04-02T09:47:42.086Z,1014.31
2023-04-02T09:48:39.777Z,1014.27
2023-04-02T09:49:39.739Z,1014.30
2023-04-02T09:50:39.734Z,1014.34
2023-04-02T09:51:39.727Z,1014.30
2023-04-02T09:52:39.731Z,1014.41
2023-04-02T09:53:41.883Z,1014.42
2023-04-02T09:54:39.729Z,1014.45
2023-04-02T09:55:39.745Z,1014.42
2023-04-02T09:56:39.675Z,1014.47
2023-04-02T09:57:39.643Z,1014.45
2023-04-02T09:58:39.696Z,1014.47
2023-04-02T09:59:39.623Z,1014.51
2023-04-02T10:00:39.742Z,1014.53
2023-04-02T10:01:39.691Z,1014.46
2023-04-02T10:02:39.620Z,1014.52
2023-04-02T10:03:39.594Z,1014.56
2023-04-02T10:04:39.614Z,1014.56
2023-04-02T10:05:41.084Z,1014.61
2023-04-02T10:06:39.537Z,1014.54
2023-04-02T10:07:39.570Z,1014.62
2023-04-02T10:08:39.524Z,1014.63
2023-04-02T10:09:39.535Z,1014.64
2023-04-02T10:10:39.513Z,1014.72
2023-04-02T10:11:46.321Z,1014.67
2023-04-02T10:12:40.545Z,1014.69
2023-04-02T10:13:39.468Z,1014.71
2023-04-02T10:14:39.465Z,1014.71
2023-04-02T10:15:39.455Z,1014.66
2023-04-02T10:16:39.523Z,1014.66
2023-04-02T10:17:39.485Z,1014.72
2023-04-02T10:18:39.417Z,1014.78
2023-04-02T10:19:39.426Z,1014.79
2023-04-02T10:20:50.508Z,1014.70
2023-04-02T10:21:40.424Z,1014.73
2023-04-02T10:22:39.383Z,1014.83
2023-04-02T10:23:39.389Z,1014.80
2023-04-02T10:24:39.348Z,1014.82
2023-04-02T10:25:39.380Z,1014.75
2023-04-02T10:26:39.350Z,1014.85
2023-04-02T10:27:39.332Z,1014.86
2023-04-02T10:28:39.310Z,1014.83
2023-04-02T10:29:39.298Z,1014.86
2023-04-02T10:30:39.351Z,1014.84
2023-04-02T10:31:39.314Z,1014.89
2023-04-02T10:32:39.291Z,1014.96
2023-04-02T10:33:39.265Z,1014.96
2023-04-02T10:34:39.431Z,1014.96
2023-04-02T10:35:39.439Z,1015.01
2023-04-02T10:36:39.228Z,1015.01
2023-04-02T10:37:39.243Z,1014.99
2023-04-02T10:38:39.207Z,1015.03
2023-04-02T10:39:39.222Z,1015.03
2023-04-02T10:40:39.175Z,1015.03
2023-04-02T10:41:39.195Z,1014.99
2023-04-02T10:42:39.159Z,1015.02
2023-04-02T10:43:39.346Z,1015.12
2023-04-02T10:44:39.138Z,1015.09
2023-04-02T10:45:39.116Z,1015.09
2023-04-02T10:46:39.213Z,1015.09
2023-04-02T10:47:39.196Z,1015.16
2023-04-02T10:48:40.074Z,1015.06
2023-04-02T10:49:39.116Z,1015.17
2023-04-02T10:50:39.086Z,1015.17
2023-04-02T10:51:39.078Z,1015.16
2023-04-02T10:52:39.069Z,1015.17
2023-04-02T10:53:39.054Z,1015.19
2023-04-02T10:54:39.023Z,1015.20
2023-04-02T10:55:39.040Z,1015.29
2023-04-02T10:56:50.165Z,1015.27
2023-04-02T10:57:40.117Z,1015.23
2023-04-02T10:58:39.009Z,1015.20
2023-04-02T10:59:38.989Z,1015.21
2023-04-02T11:00:38.973Z,1015.10
2023-04-02T11:01:39.031Z,1015.26
2023-04-02T11:02:39.021Z,1015.33
2023-04-02T11:03:39.071Z,1015.37
2023-04-02T11:04:38.921Z,1015.39
2023-04-02T11:05:38.930Z,1015.48
2023-04-02T11:06:38.916Z,1015.43
2023-04-02T11:07:38.907Z,1015.51
2023-04-02T11:08:38.881Z,1015.38
2023-04-02T11:09:38.876Z,1015.39
2023-04-02T11:10:38.852Z,1015.43
2023-04-02T11:11:38.862Z,1015.39
2023-04-02T11:12:41.526Z,1015.48
2023-04-02T11:13:38.836Z,1015.48
2023-04-02T11:14:38.912Z,1015.55
2023-04-02T11:15:38.835Z,1015.53
2023-04-02T11:16:43.353Z,1015.55
2023-04-02T11:17:39.843Z,1015.63
2023-04-02T11:18:38.853Z,1015.61
2023-04-02T11:19:38.769Z,1015.63
2023-04-02T11:20:38.745Z,1015.64
2023-04-02T11:21:51.082Z,1015.65
2023-04-02T11:22:39.743Z,1015.66
2023-04-02T11:23:38.727Z,1015.69
2023-04-02T11:24:38.959Z,1015.72
2023-04-02T11:25:38.718Z,1015.66
2023-04-02T11:26:38.694Z,1015.62
2023-04-02T11:27:38.712Z,1015.60
2023-04-02T11:28:38.770Z,1015.63
2023-04-02T11:29:38.729Z,1015.71
2023-04-02T11:30:38.654Z,1015.67
2023-04-02T11:31:39.384Z,1015.60
2023-04-02T11:32:38.659Z,1015.70
2023-04-02T11:33:41.370Z,1015.71
2023-04-02T11:34:39.616Z,1015.67
2023-04-02T11:35:38.909Z,1015.66
2023-04-02T11:36:38.606Z,1015.69
2023-04-02T11:37:38.636Z,1015.64
2023-04-02T11:38:38.671Z,1015.60
2023-04-02T11:39:38.579Z,1015.56
2023-04-02T11:40:38.538Z,1015.66
2023-04-02T11:41:38.549Z,1015.62
2023-04-02T11:42:38.550Z,1015.65
2023-04-02T11:43:38.543Z,1015.61
2023-04-02T11:44:38.538Z,1015.58
2023-04-02T11:45:50.141Z,1015.64
2023-04-02T11:46:39.546Z,1015.66
2023-04-02T11:47:38.498Z,1015.61
2023-04-02T11:48:38.463Z,1015.65
2023-04-02T11:49:38.468Z,1015.64
2023-04-02T11:50:38.461Z,1015.59
2023-04-02T11:51:38.437Z,1015.65
2023-04-02T11:52:38.444Z,1015.54
2023-04-02T11:53:38.426Z,1015.68
2023-04-02T11:54:38.392Z,1015.58
2023-04-02T11:55:38.707Z,1015.52
2023-04-02T11:56:38.362Z,1015.54
2023-04-02T11:57:38.429Z,1015.58
2023-04-02T11:58:38.344Z,1015.63
2023-04-02T11:59:38.367Z,1015.56
2023-04-02T12:00:38.414Z,1015.58
2023-04-02T12:01:38.363Z,1015.45
2023-04-02T12:02:38.404Z,1015.55
2023-04-02T12:03:38.362Z,1015.52
2023-04-02T12:04:38.298Z,1015.58
2023-04-02T12:05:38.388Z,1015.52